Time;durP1;ratioP1;P1;durP2;ratioP2;P2;SDS_P1;SDS_P2;PMS_P1;PMS_P2;Temp;Humidity;BMP_temperature;BMP_pressure;BME280_temperature;BME280_humidity;BME280_pressure;Samples;Min_cycle;Max_cycle;Signal;HPM_P1;HPM_P2
2023/03/14 00:01:32;;;;;;;5.13;2.53;;;9.80;95.00;;;;;;4419853;28;656654;-67
2023/03/14 00:04:20;;;;;;;5.43;2.60;;;9.80;95.00;;;;;;4438604;28;655723;-67
2023/03/14 00:07:07;;;;;;;4.50;2.00;;;9.70;96.40;;;;;;4443667;28;656090;-67
2023/03/14 00:09:55;;;;;;;4.13;2.00;;;9.80;95.20;;;;;;4437210;28;655759;-67
2023/03/14 00:12:42;;;;;;;5.70;2.10;;;9.90;95.00;;;;;;4444384;28;655754;-67
2023/03/14 00:15:30;;;;;;;3.97;1.77;;;10.20;93.10;;;;;;4437273;28;655631;-67
2023/03/14 00:18:19;;;;;;;3.83;2.00;;;10.30;92.60;;;;;;4432217;28;657149;-67
2023/03/14 00:21:07;;;;;;;4.43;2.00;;;10.40;92.50;;;;;;4421301;28;656630;-67
2023/03/14 00:23:54;;;;;;;5.07;2.30;;;10.20;92.40;;;;;;4434408;28;656975;-67
2023/03/14 00:26:42;;;;;;;6.63;2.17;;;10.00;93.00;;;;;;4424937;28;656930;-67
2023/03/14 00:29:29;;;;;;;5.20;2.40;;;9.90;93.20;;;;;;4434527;28;656552;-67
2023/03/14 00:32:16;;;;;;;5.20;2.90;;;9.90;93.60;;;;;;4422340;28;655223;-67
2023/03/14 00:35:06;;;;;;;5.67;2.90;;;9.70;95.10;;;;;;4444072;28;654783;-67
2023/03/14 00:37:53;;;;;;;6.93;3.47;;;9.40;95.90;;;;;;4409792;28;655583;-67
2023/03/14 00:40:40;;;;;;;13.80;5.63;;;9.30;97.00;;;;;;4423452;28;655478;-67
2023/03/14 00:43:27;;;;;;;17.17;6.37;;;9.10;98.00;;;;;;4441890;28;657482;-67
2023/03/14 00:46:15;;;;;;;9.77;4.93;;;8.90;99.30;;;;;;4437766;28;657452;-67
2023/03/14 00:49:02;;;;;;;12.90;4.60;;;8.70;99.90;;;;;;4448118;28;655731;-67
2023/03/14 00:51:52;;;;;;;11.87;4.23;;;8.40;99.90;;;;;;4439122;28;657234;-67
2023/03/14 00:54:39;;;;;;;11.77;4.90;;;8.10;99.90;;;;;;4433157;28;656690;-67
2023/03/14 00:57:26;;;;;;;9.97;3.33;;;7.90;99.90;;;;;;4419603;28;656748;-67
2023/03/14 01:00:15;;;;;;;13.20;5.63;;;7.60;99.90;;;;;;4442620;28;656566;-67
2023/03/14 01:03:02;;;;;;;13.13;5.97;;;7.30;99.90;;;;;;4420216;28;657284;-67
2023/03/14 01:05:49;;;;;;;13.43;5.57;;;7.20;99.90;;;;;;4444863;28;656224;-67
2023/03/14 01:08:38;;;;;;;22.85;9.27;;;7.00;99.90;;;;;;4420390;28;656322;-67
2023/03/14 01:11:26;;;;;;;23.00;9.93;;;6.90;99.90;;;;;;4426328;28;656621;-67
2023/03/14 01:14:14;;;;;;;22.38;9.90;;;6.80;99.90;;;;;;4437969;28;657100;-67
2023/03/14 01:17:01;;;;;;;22.27;9.80;;;6.80;99.90;;;;;;4419133;28;656731;-67
2023/03/14 01:19:48;;;;;;;25.75;10.07;;;6.60;99.90;;;;;;4442637;28;656880;-67
2023/03/14 01:22:35;;;;;;;13.20;5.43;;;6.50;99.90;;;;;;4422072;28;658237;-67
2023/03/14 01:25:24;;;;;;;16.10;6.77;;;6.40;99.90;;;;;;4446991;28;656598;-67
2023/03/14 01:28:11;;;;;;;16.10;5.83;;;6.40;99.90;;;;;;4416065;28;656445;-67
2023/03/14 01:31:03;;;;;;;15.52;6.22;;;6.30;99.90;;;;;;4435585;28;656805;-67
2023/03/14 01:33:50;;;;;;;15.00;5.63;;;6.30;99.90;;;;;;4395755;28;656634;-67
2023/03/14 01:36:38;;;;;;;12.97;5.50;;;6.20;99.90;;;;;;4439778;28;656912;-67
2023/03/14 01:39:25;;;;;;;11.63;5.00;;;6.10;99.90;;;;;;4432258;28;657028;-67
2023/03/14 01:42:14;;;;;;;16.43;6.47;;;6.10;99.90;;;;;;4441031;28;656900;-67
2023/03/14 01:45:02;;;;;;;15.63;6.53;;;6.10;99.90;;;;;;4416281;28;656598;-67
2023/03/14 01:47:49;;;;;;;17.87;8.30;;;6.10;99.90;;;;;;4441313;28;656463;-67
2023/03/14 01:50:36;;;;;;;13.50;6.10;;;6.00;99.90;;;;;;4421837;28;656668;-67
2023/03/14 01:53:25;;;;;;;14.40;5.10;;;6.00;99.90;;;;;;4440238;28;656549;-67
2023/03/14 01:56:13;;;;;;;13.27;5.53;;;5.90;99.90;;;;;;4422471;28;657229;-67
2023/03/14 01:59:03;;;;;;;24.23;8.27;;;5.80;99.90;;;;;;4423038;28;656819;-67
2023/03/14 02:01:50;;;;;;;20.45;8.50;;;5.70;99.90;;;;;;4425221;28;656556;-67
2023/03/14 02:04:37;;;;;;;20.43;7.20;;;5.70;99.90;;;;;;4432669;28;657287;-67
2023/03/14 02:07:26;;;;;;;14.67;6.17;;;5.70;99.90;;;;;;4433682;28;656123;-67
2023/03/14 02:10:14;;;;;;;12.57;5.50;;;5.60;99.90;;;;;;4438087;28;657292;-67
2023/03/14 02:13:02;;;;;;;16.97;5.80;;;5.60;99.90;;;;;;4417449;28;656243;-67
2023/03/14 02:15:52;;;;;;;11.93;5.37;;;5.70;99.90;;;;;;4436061;28;656447;-67
2023/03/14 02:18:40;;;;;;;14.13;5.70;;;5.60;99.90;;;;;;4438244;28;656776;-67
2023/03/14 02:21:34;;;;;;;9.77;5.37;;;5.60;99.90;;;;;;4411747;28;658179;-67
2023/03/14 02:24:24;;;;;;;16.33;5.70;;;5.60;99.90;;;;;;4418807;28;655322;-67
2023/03/14 02:27:13;;;;;;;12.73;5.13;;;5.60;99.90;;;;;;4419885;28;656475;-67
2023/03/14 02:30:02;;;;;;;10.65;5.38;;;5.70;99.90;;;;;;4423959;28;656583;-67
2023/03/14 02:32:51;;;;;;;10.23;4.57;;;5.70;99.90;;;;;;4439849;28;656302;-67
2023/03/14 02:35:40;;;;;;;7.73;3.90;;;5.80;99.90;;;;;;4417239;28;657081;-67
2023/03/14 02:38:30;;;;;;;9.60;4.40;;;5.90;99.90;;;;;;4410453;28;657064;-67
2023/03/14 02:41:17;;;;;;;11.57;4.30;;;6.00;99.90;;;;;;4417070;28;657326;-67
2023/03/14 02:44:06;;;;;;;9.73;4.00;;;6.00;99.90;;;;;;4444464;28;656229;-67
2023/03/14 02:46:53;;;;;;;9.87;3.80;;;6.10;99.90;;;;;;4414719;28;656143;-67
2023/03/14 02:49:40;;;;;;;7.77;3.63;;;6.10;99.90;;;;;;4420245;28;656044;-67
2023/03/14 02:52:27;;;;;;;7.47;3.70;;;6.20;99.90;;;;;;4442867;28;655688;-67
2023/03/14 02:55:15;;;;;;;10.60;3.70;;;6.20;99.90;;;;;;4437925;28;656497;-68
2023/03/14 02:58:02;;;;;;;9.23;3.27;;;6.10;99.90;;;;;;4438733;28;656395;-67
2023/03/14 03:00:52;;;;;;;7.63;3.83;;;6.10;99.90;;;;;;4432948;28;655410;-67
2023/03/14 03:03:39;;;;;;;6.03;3.47;;;6.10;99.90;;;;;;4440423;28;656651;-67
2023/03/14 03:06:26;;;;;;;6.40;3.30;;;6.10;99.90;;;;;;4421623;28;655471;-67
2023/03/14 03:09:13;;;;;;;7.00;3.20;;;6.10;99.90;;;;;;4443410;28;655826;-67
2023/03/14 03:12:00;;;;;;;7.87;3.37;;;6.00;99.90;;;;;;4413965;28;656234;-67
2023/03/14 03:14:48;;;;;;;7.07;3.00;;;6.00;99.90;;;;;;4437593;28;656341;-67
2023/03/14 03:17:37;;;;;;;7.23;3.33;;;6.00;99.90;;;;;;4426737;28;656118;-67
2023/03/14 03:20:24;;;;;;;6.60;2.57;;;6.00;99.90;;;;;;4439119;28;656360;-67
2023/03/14 03:23:11;;;;;;;5.97;2.80;;;6.00;99.90;;;;;;4418240;28;655454;-67
2023/03/14 03:25:58;;;;;;;10.20;2.70;;;6.10;99.90;;;;;;4440927;28;656178;-67
2023/03/14 03:28:46;;;;;;;8.07;3.00;;;6.10;99.90;;;;;;4415301;28;656451;-67
2023/03/14 03:31:33;;;;;;;6.03;2.77;;;6.20;99.90;;;;;;4443769;28;655847;-67
2023/03/14 03:34:22;;;;;;;8.53;3.03;;;6.10;99.90;;;;;;4422661;28;655970;-67
2023/03/14 03:37:09;;;;;;;7.33;3.10;;;6.10;99.90;;;;;;4442797;28;654972;-67
2023/03/14 03:39:56;;;;;;;7.10;2.90;;;6.10;99.90;;;;;;4423207;28;656013;-67
2023/03/14 03:42:43;;;;;;;8.23;2.80;;;6.00;99.90;;;;;;4443796;28;655758;-67
2023/03/14 03:45:30;;;;;;;7.20;3.00;;;5.90;99.90;;;;;;4418245;28;656363;-67
2023/03/14 03:48:18;;;;;;;3.93;2.50;;;5.90;99.90;;;;;;4444302;28;656263;-67
2023/03/14 03:51:07;;;;;;;6.67;2.80;;;5.90;99.90;;;;;;4430557;28;655339;-67
2023/03/14 03:53:54;;;;;;;6.83;3.17;;;5.80;99.90;;;;;;4443948;28;655409;-67
2023/03/14 03:56:41;;;;;;;7.30;3.28;;;5.80;99.90;;;;;;4422087;28;655531;-67
2023/03/14 03:59:28;;;;;;;8.90;3.00;;;5.70;99.90;;;;;;4436174;28;656751;-67
2023/03/14 04:02:16;;;;;;;6.67;3.07;;;5.70;99.90;;;;;;4421986;28;655604;-67
2023/03/14 04:05:03;;;;;;;10.03;3.37;;;5.60;99.90;;;;;;4444486;28;656299;-67
2023/03/14 04:07:52;;;;;;;7.90;3.67;;;5.60;99.90;;;;;;4423428;28;656775;-67
2023/03/14 04:10:39;;;;;;;5.70;2.80;;;5.50;99.90;;;;;;4443032;28;656138;-67
2023/03/14 04:13:26;;;;;;;4.83;2.13;;;5.60;99.90;;;;;;4422585;28;655649;-67
2023/03/14 04:16:15;;;;;;;6.40;2.53;;;6.20;99.90;;;;;;4436261;28;656099;-67
2023/03/14 04:19:02;;;;;;;4.70;2.53;;;7.40;99.90;;;;;;4420983;28;655992;-67
2023/03/14 04:21:52;;;;;;;8.93;2.80;;;8.40;99.90;;;;;;4441483;28;655303;-67
2023/03/14 04:24:44;;;;;;;4.60;2.63;;;8.30;99.90;;;;;;4419460;28;655286;-67
2023/03/14 04:27:31;;;;;;;6.93;2.90;;;8.10;99.90;;;;;;4426031;28;656462;-67
2023/03/14 04:30:21;;;;;;;5.00;2.93;;;8.00;99.90;;;;;;4443346;28;655839;-67
2023/03/14 04:33:12;;;;;;;7.67;3.37;;;7.80;99.90;;;;;;4409610;28;655597;-67
2023/03/14 04:35:59;;;;;;;7.03;2.57;;;7.40;99.90;;;;;;4419872;28;655352;-67
2023/03/14 04:38:46;;;;;;;10.47;3.03;;;7.30;99.90;;;;;;4419793;28;655858;-67
2023/03/14 04:41:35;;;;;;;6.93;2.80;;;7.30;99.90;;;;;;4441443;28;656703;-67
2023/03/14 04:44:22;;;;;;;7.70;3.13;;;7.30;99.90;;;;;;4419847;28;655481;-67
2023/03/14 04:47:09;;;;;;;11.53;3.40;;;7.20;99.90;;;;;;4442311;28;656216;-68
2023/03/14 04:49:57;;;;;;;7.13;2.80;;;7.20;99.90;;;;;;4418501;28;656928;-67
2023/03/14 04:52:44;;;;;;;7.70;3.53;;;7.40;99.90;;;;;;4440242;28;655122;-67
2023/03/14 04:55:32;;;;;;;9.83;3.13;;;7.70;99.90;;;;;;4423530;28;657175;-67
2023/03/14 04:58:21;;;;;;;10.18;3.80;;;8.30;99.90;;;;;;4442510;28;656004;-67
2023/03/14 05:01:08;;;;;;;6.13;3.00;;;8.40;99.90;;;;;;4417359;28;657008;-67
2023/03/14 05:03:55;;;;;;;9.63;3.43;;;8.10;99.90;;;;;;4419355;28;655858;-68
2023/03/14 05:06:42;;;;;;;6.77;3.17;;;8.30;99.90;;;;;;4435882;28;656165;-67
2023/03/14 05:09:30;;;;;;;8.37;3.63;;;8.40;99.90;;;;;;4436925;28;655887;-67
2023/03/14 05:12:17;;;;;;;7.93;3.17;;;8.40;99.90;;;;;;4445644;28;656107;-68
2023/03/14 05:15:08;;;;;;;9.00;3.37;;;8.50;99.90;;;;;;4440289;28;655629;-67
2023/03/14 05:17:55;;;;;;;9.90;3.33;;;8.20;99.90;;;;;;4421386;28;655868;-68
2023/03/14 05:20:43;;;;;;;9.00;3.30;;;8.10;99.90;;;;;;4439050;28;657334;-67
2023/03/14 05:23:31;;;;;;;7.27;3.17;;;8.00;99.90;;;;;;4414968;28;655344;-68
2023/03/14 05:26:18;;;;;;;17.27;2.67;;;7.70;99.90;;;;;;4444338;28;655588;-67
2023/03/14 05:29:05;;;;;;;7.57;3.13;;;7.90;99.90;;;;;;4416919;28;657006;-68
2023/03/14 05:31:54;;;;;;;8.80;3.20;;;8.20;99.90;;;;;;4444146;28;655799;-67
2023/03/14 05:34:41;;;;;;;7.00;2.93;;;8.40;99.90;;;;;;4420569;28;656081;-67
2023/03/14 05:37:28;;;;;;;7.50;3.00;;;8.50;99.90;;;;;;4442358;28;656723;-67
2023/03/14 05:40:16;;;;;;;6.77;2.90;;;8.50;99.90;;;;;;4416362;28;655975;-67
2023/03/14 05:43:03;;;;;;;6.03;2.77;;;8.60;99.90;;;;;;4444901;28;656459;-67
2023/03/14 05:45:50;;;;;;;5.23;3.00;;;8.80;99.90;;;;;;4423953;28;656109;-67
2023/03/14 05:48:39;;;;;;;7.83;3.20;;;9.00;99.90;;;;;;4440628;28;656115;-67
2023/03/14 05:51:26;;;;;;;11.20;3.57;;;9.30;99.90;;;;;;4422921;28;655598;-67
2023/03/14 05:54:13;;;;;;;10.47;3.53;;;9.40;99.90;;;;;;4444359;28;657256;-67
2023/03/14 05:57:00;;;;;;;8.17;3.87;;;9.60;99.90;;;;;;4413859;28;656545;-67
2023/03/14 05:59:48;;;;;;;11.50;3.97;;;9.60;99.90;;;;;;4442515;28;656147;-68
2023/03/14 06:02:35;;;;;;;9.77;3.53;;;9.60;99.90;;;;;;4425184;28;656878;-67
2023/03/14 06:05:24;;;;;;;9.33;3.60;;;9.60;99.90;;;;;;4446976;28;656394;-67
2023/03/14 06:08:11;;;;;;;21.17;6.93;;;9.60;99.90;;;;;;4422968;28;656529;-67
2023/03/14 06:10:58;;;;;;;64.28;16.80;;;9.60;99.90;;;;;;4440834;28;657281;-65
2023/03/14 06:13:46;;;;;;;20.43;6.83;;;9.60;99.90;;;;;;4413452;28;657295;-66
2023/03/14 06:16:33;;;;;;;10.03;3.73;;;9.70;99.90;;;;;;4432729;28;657341;-66
2023/03/14 06:19:20;;;;;;;6.83;3.03;;;9.60;99.90;;;;;;4417498;28;656864;-66
2023/03/14 06:22:09;;;;;;;7.00;3.27;;;9.80;99.90;;;;;;4440407;28;656934;-66
2023/03/14 06:24:56;;;;;;;5.07;2.87;;;9.90;99.90;;;;;;4424018;28;655675;-66
2023/03/14 06:27:43;;;;;;;10.00;3.27;;;10.00;99.90;;;;;;4440886;28;656136;-65
2023/03/14 06:30:31;;;;;;;7.90;3.20;;;10.00;99.90;;;;;;4418682;28;657545;-66
2023/03/14 06:33:18;;;;;;;6.70;3.00;;;10.10;99.90;;;;;;4437007;28;658084;-65
2023/03/14 06:36:06;;;;;;;7.57;3.40;;;10.20;99.90;;;;;;4418667;28;656404;-67
2023/03/14 06:38:54;;;;;;;8.57;3.23;;;10.30;99.90;;;;;;4441159;28;658715;-65
2023/03/14 06:41:42;;;;;;;6.07;3.47;;;10.30;99.90;;;;;;4417801;28;656807;-67
2023/03/14 06:44:29;;;;;;;5.23;2.70;;;10.40;99.90;;;;;;4436943;28;656034;-68
2023/03/14 06:47:16;;;;;;;8.83;3.17;;;10.50;99.90;;;;;;4417335;28;656797;-67
2023/03/14 06:50:04;;;;;;;7.67;3.37;;;10.70;99.90;;;;;;4434054;28;656861;-66
2023/03/14 06:52:51;;;;;;;8.80;2.90;;;10.70;99.90;;;;;;4417202;28;657227;-67
2023/03/14 06:55:40;;;;;;;6.20;2.90;;;10.90;99.90;;;;;;4437441;28;656584;-66
2023/03/14 06:58:27;;;;;;;6.70;2.80;;;10.90;99.90;;;;;;4413867;28;657220;-69
2023/03/14 07:01:20;;;;;;;6.97;2.80;;;11.00;99.90;;;;;;4439602;28;656243;-68
2023/03/14 07:04:09;;;;;;;6.07;2.80;;;11.10;99.90;;;;;;4421652;28;657343;-67
2023/03/14 07:06:56;;;;;;;6.90;2.80;;;11.20;99.90;;;;;;4423405;28;656954;-68
2023/03/14 07:09:43;;;;;;;5.77;2.63;;;11.20;99.90;;;;;;4445497;28;656915;-67
2023/03/14 07:12:32;;;;;;;6.30;2.50;;;11.20;99.90;;;;;;4413769;28;656967;-69
2023/03/14 07:15:19;;;;;;;8.77;2.47;;;11.30;99.90;;;;;;4443433;28;656114;-71
2023/03/14 07:18:06;;;;;;;8.77;2.30;;;11.30;99.90;;;;;;4423142;28;656627;-70
2023/03/14 07:20:53;;;;;;;5.77;2.30;;;11.40;99.90;;;;;;4441550;28;657068;-67
2023/03/14 07:23:41;;;;;;;4.73;2.37;;;11.30;99.90;;;;;;4425363;28;656719;-67
2023/03/14 07:26:28;;;;;;;5.20;2.60;;;11.40;99.90;;;;;;4439029;28;657247;-67
2023/03/14 07:29:17;;;;;;;4.73;2.33;;;11.30;99.90;;;;;;4421009;28;656724;-68
2023/03/14 07:32:04;;;;;;;6.17;2.43;;;11.50;99.90;;;;;;4442626;28;656648;-67
2023/03/14 07:34:51;;;;;;;4.53;2.10;;;11.50;99.90;;;;;;4423138;28;656504;-67
2023/03/14 07:37:38;;;;;;;8.95;2.67;;;11.60;98.50;;;;;;4442727;28;656580;-67
2023/03/14 07:40:25;;;;;;;6.50;3.10;;;11.80;97.80;;;;;;4425350;28;656650;-68
2023/03/14 07:43:13;;;;;;;8.33;2.90;;;11.90;98.50;;;;;;4438247;28;657333;-67
2023/03/14 07:46:02;;;;;;;8.57;3.03;;;12.00;97.40;;;;;;4433861;28;656459;-69
2023/03/14 07:48:49;;;;;;;7.27;2.40;;;12.10;96.50;;;;;;4440806;28;656198;-67
2023/03/14 07:51:36;;;;;;;6.40;2.80;;;12.20;98.30;;;;;;4419597;28;656722;-67
2023/03/14 07:54:24;;;;;;;8.30;2.90;;;12.20;97.00;;;;;;4446329;28;657452;-66
2023/03/14 07:57:11;;;;;;;8.30;2.63;;;12.10;97.40;;;;;;4412722;28;656550;-67
2023/03/14 07:59:59;;;;;;;4.37;2.40;;;12.20;96.60;;;;;;4433694;28;656413;-68
2023/03/14 08:02:47;;;;;;;5.07;2.07;;;12.20;95.10;;;;;;4428239;28;656280;-68
2023/03/14 08:05:35;;;;;;;5.47;2.80;;;12.30;95.40;;;;;;4446115;28;656216;-68
2023/03/14 08:08:23;;;;;;;5.13;2.27;;;12.40;95.00;;;;;;4415117;28;657298;-69
2023/03/14 08:11:10;;;;;;;4.73;2.47;;;12.40;94.70;;;;;;4430315;28;657052;-68
2023/03/14 08:13:57;;;;;;;3.90;2.20;;;12.50;95.60;;;;;;4435788;28;657564;-69
2023/03/14 08:16:45;;;;;;;6.07;2.67;;;12.80;93.60;;;;;;4438743;28;656437;-70
2023/03/14 08:19:34;;;;;;;6.03;2.73;;;13.10;93.50;;;;;;4438567;28;656552;-69
2023/03/14 08:22:21;;;;;;;4.17;2.00;;;13.10;95.10;;;;;;4416826;28;656276;-67
2023/03/14 08:25:09;;;;;;;7.23;2.60;;;13.10;92.90;;;;;;4447127;28;657370;-67
2023/03/14 08:27:56;;;;;;;6.93;2.50;;;13.30;92.90;;;;;;4412684;28;656971;-67
2023/03/14 08:30:43;;;;;;;5.13;2.23;;;13.10;92.80;;;;;;4440423;28;657368;-68
2023/03/14 08:33:30;;;;;;;5.83;2.70;;;13.20;92.20;;;;;;4421065;28;656573;-67
2023/03/14 08:36:19;;;;;;;6.87;2.73;;;13.20;92.50;;;;;;4435573;28;657152;-68
2023/03/14 08:39:08;;;;;;;4.77;2.43;;;13.10;91.60;;;;;;4413647;28;657222;-67
2023/03/14 08:41:56;;;;;;;6.00;3.10;;;13.10;90.80;;;;;;4419260;28;656946;-67
2023/03/14 08:44:43;;;;;;;7.20;2.60;;;13.10;91.80;;;;;;4445675;28;657057;-67
2023/03/14 08:47:30;;;;;;;8.70;2.90;;;13.10;90.90;;;;;;4416317;28;656401;-67
2023/03/14 08:50:17;;;;;;;6.30;2.80;;;13.10;90.90;;;;;;4444179;28;656768;-67
2023/03/14 08:53:07;;;;;;;8.20;3.33;;;13.00;91.70;;;;;;4430732;28;657266;-68
2023/03/14 08:55:54;;;;;;;6.83;3.20;;;13.00;90.90;;;;;;4444626;28;656173;-67
2023/03/14 08:58:41;;;;;;;6.97;3.13;;;13.20;91.40;;;;;;4419899;28;656351;-67
2023/03/14 09:01:29;;;;;;;6.97;3.43;;;13.40;90.30;;;;;;4442110;28;656852;-66
2023/03/14 09:04:16;;;;;;;7.47;3.53;;;13.50;91.10;;;;;;4426121;28;656366;-67
2023/03/14 09:07:04;;;;;;;10.43;3.20;;;13.40;90.00;;;;;;4445887;28;657347;-67
2023/03/14 09:09:53;;;;;;;6.47;2.93;;;13.30;90.30;;;;;;4410457;28;657751;-67
2023/03/14 09:12:40;;;;;;;7.50;3.20;;;13.10;90.50;;;;;;4425579;28;656499;-68
2023/03/14 09:15:27;;;;;;;8.07;2.80;;;13.10;89.80;;;;;;4442694;28;657322;-66
2023/03/14 09:18:15;;;;;;;5.23;2.77;;;13.10;90.00;;;;;;4441261;28;656624;-68
2023/03/14 09:21:02;;;;;;;6.00;2.47;;;13.30;88.80;;;;;;4443631;28;657699;-67
2023/03/14 09:23:50;;;;;;;4.47;2.50;;;13.40;88.90;;;;;;4441731;28;656147;-68
2023/03/14 09:26:39;;;;;;;5.10;2.43;;;13.50;87.70;;;;;;4445233;28;657270;-70
2023/03/14 09:29:26;;;;;;;7.33;2.60;;;13.60;88.40;;;;;;4415683;28;656459;-68
2023/03/14 09:32:13;;;;;;;7.70;3.27;;;13.50;87.40;;;;;;4442264;28;656603;-67
2023/03/14 09:35:01;;;;;;;5.80;2.87;;;13.70;89.10;;;;;;4422052;28;656691;-66
2023/03/14 09:37:48;;;;;;;7.63;3.00;;;13.60;87.20;;;;;;4445533;28;657629;-66
2023/03/14 09:40:36;;;;;;;4.97;2.87;;;13.60;88.30;;;;;;4420700;28;656889;-66
2023/03/14 09:43:24;;;;;;;6.67;3.03;;;13.50;88.30;;;;;;4435918;28;658056;-66
2023/03/14 09:46:12;;;;;;;5.60;2.70;;;13.50;90.30;;;;;;4417624;28;656963;-67
2023/03/14 09:48:59;;;;;;;17.10;9.03;;;13.60;88.30;;;;;;4441736;28;656430;-66
2023/03/14 09:51:47;;;;;;;8.17;4.27;;;13.70;91.70;;;;;;4419495;28;657805;-66
2023/03/14 09:54:36;;;;;;;19.87;8.97;;;14.10;87.80;;;;;;4436394;28;656470;-65
2023/03/14 09:57:25;;;;;;;14.30;5.90;;;13.80;85.40;;;;;;4409052;28;657714;-67
2023/03/14 10:00:16;;;;;;;11.23;4.38;;;13.50;88.20;;;;;;4420547;28;658247;-69
2023/03/14 10:03:18;;;;;;;10.93;5.47;;;13.70;88.20;;;;;;4412923;28;657640;-66
2023/03/14 10:06:12;;;;;;;10.97;3.97;;;13.50;88.70;;;;;;4403861;28;657891;-67
2023/03/14 10:08:59;;;;;;;10.10;3.57;;;13.70;89.20;;;;;;4417619;28;657621;-66
2023/03/14 10:11:46;;;;;;;6.17;2.87;;;14.00;90.50;;;;;;4417114;28;657830;-69
2023/03/14 10:14:34;;;;;;;9.30;4.35;;;14.30;88.30;;;;;;4433727;28;657241;-66
2023/03/14 10:17:23;;;;;;;9.33;3.37;;;14.20;88.60;;;;;;4412122;28;657064;-66
2023/03/14 10:20:32;;;;;;;5.07;3.00;;;14.10;89.30;;;;;;4419629;28;656444;-69
2023/03/14 10:23:27;;;;;;;9.13;3.00;;;14.20;87.70;;;;;;4415992;28;657241;-66
2023/03/14 10:26:16;;;;;;;6.30;2.87;;;13.80;89.50;;;;;;4408229;28;656432;-67
2023/03/14 10:29:05;;;;;;;6.07;3.00;;;13.80;88.20;;;;;;4441224;28;657642;-67
2023/03/14 10:31:53;;;;;;;10.53;3.43;;;13.60;90.00;;;;;;4419600;28;657240;-66
2023/03/14 10:34:42;;;;;;;8.23;3.20;;;13.40;90.60;;;;;;4409320;28;657432;-68
2023/03/14 10:37:29;;;;;;;6.70;2.30;;;13.40;90.80;;;;;;4430510;28;656219;-67
2023/03/14 10:40:16;;;;;;;10.47;3.07;;;13.30;91.10;;;;;;4419340;28;656832;-68
2023/03/14 10:43:05;;;;;;;5.33;3.10;;;13.40;91.40;;;;;;4436720;28;657351;-66
2023/03/14 10:45:57;;;;;;;7.63;2.83;;;13.20;91.80;;;;;;4415770;28;657098;-66
2023/03/14 10:48:45;;;;;;;4.40;2.67;;;13.10;92.80;;;;;;4416883;28;656522;-66
2023/03/14 10:51:34;;;;;;;9.10;2.97;;;13.10;92.80;;;;;;4411686;28;657148;-68
2023/03/14 10:54:22;;;;;;;7.33;3.23;;;13.10;93.30;;;;;;4405875;28;656656;-67
2023/03/14 10:57:09;;;;;;;5.63;2.90;;;13.10;92.70;;;;;;4443006;28;656866;-68
2023/03/14 10:59:57;;;;;;;10.77;2.93;;;13.10;93.10;;;;;;4422152;28;656904;-68
2023/03/14 11:02:55;;;;;;;10.73;4.90;;;13.10;93.70;;;;;;4437672;28;657427;-68
2023/03/14 11:05:44;;;;;;;7.43;3.50;;;13.00;93.80;;;;;;4389706;28;657703;-66
2023/03/14 11:08:36;;;;;;;9.77;3.93;;;13.00;93.60;;;;;;4419542;28;657193;-69
2023/03/14 11:11:25;;;;;;;8.27;3.87;;;13.00;94.30;;;;;;4419840;28;657342;-66
2023/03/14 11:14:18;;;;;;;11.63;4.67;;;12.90;94.70;;;;;;4414084;28;656843;-67
2023/03/14 11:17:09;;;;;;;13.83;4.90;;;12.90;95.10;;;;;;4394164;28;657672;-68
2023/03/14 11:20:04;;;;;;;12.37;5.77;;;12.80;95.50;;;;;;4406668;28;657667;-66
2023/03/14 11:22:54;;;;;;;14.33;6.00;;;12.70;95.80;;;;;;4417435;28;657942;-66
2023/03/14 11:25:46;;;;;;;11.00;4.60;;;12.70;96.90;;;;;;4415843;28;657663;-67
2023/03/14 11:28:36;;;;;;;36.20;14.33;;;12.60;96.30;;;;;;4413240;28;658366;-66
2023/03/14 11:31:26;;;;;;;24.43;9.57;;;12.50;97.80;;;;;;4412451;28;658914;-66
2023/03/14 11:34:16;;;;;;;10.40;5.10;;;12.50;98.40;;;;;;4413134;28;658312;-67
2023/03/14 11:37:06;;;;;;;11.17;4.93;;;12.40;98.10;;;;;;4409435;28;658074;-66
2023/03/14 11:39:58;;;;;;;6.97;3.70;;;12.40;98.30;;;;;;4416948;28;658548;-66
2023/03/14 11:42:49;;;;;;;10.57;3.13;;;12.40;99.20;;;;;;4405962;28;658096;-69
2023/03/14 11:45:37;;;;;;;4.03;2.43;;;12.40;99.50;;;;;;4414107;28;658636;-66
2023/03/14 11:48:29;;;;;;;6.13;2.80;;;12.30;99.40;;;;;;4438265;28;656193;-66
2023/03/14 11:51:21;;;;;;;5.80;3.00;;;12.30;99.90;;;;;;4415154;28;656347;-68
2023/03/14 11:54:13;;;;;;;6.60;3.00;;;12.40;99.90;;;;;;4419784;28;658267;-67
2023/03/14 11:57:02;;;;;;;6.40;3.10;;;12.50;99.80;;;;;;4401577;28;656645;-68
2023/03/14 11:59:53;;;;;;;7.70;2.80;;;12.60;99.90;;;;;;4441971;28;656272;-66
2023/03/14 12:02:44;;;;;;;9.07;3.20;;;12.60;99.90;;;;;;4396743;28;657148;-67
2023/03/14 12:05:43;;;;;;;6.17;3.50;;;12.50;99.50;;;;;;4425875;28;656300;-66
2023/03/14 12:08:43;;;;;;;8.37;3.50;;;12.60;99.90;;;;;;4391571;28;656490;-67
2023/03/14 12:11:36;;;;;;;5.63;3.10;;;12.60;99.90;;;;;;4402360;28;657150;-67
2023/03/14 12:14:25;;;;;;;7.93;3.53;;;12.60;99.90;;;;;;4416986;28;657730;-67
2023/03/14 12:17:21;;;;;;;5.97;3.23;;;12.60;99.90;;;;;;4419237;28;656719;-68
2023/03/14 12:20:16;;;;;;;8.80;3.83;;;12.60;99.90;;;;;;4415779;28;657425;-66
2023/03/14 12:23:04;;;;;;;7.57;3.70;;;12.60;99.90;;;;;;4421995;28;657770;-67
2023/03/14 12:26:07;;;;;;;10.87;3.80;;;12.70;99.90;;;;;;4413263;28;656778;-67
2023/03/14 12:29:12;;;;;;;12.07;4.03;;;12.80;99.90;;;;;;4411194;28;657430;-67
2023/03/14 12:32:10;;;;;;;9.97;3.83;;;13.00;99.20;;;;;;4415008;28;657772;-66
2023/03/14 12:34:59;;;;;;;8.40;3.83;;;13.00;99.80;;;;;;4422277;28;656652;-67
2023/03/14 12:37:46;;;;;;;11.17;3.90;;;13.00;99.60;;;;;;4415218;28;656388;-66
2023/03/14 12:40:33;;;;;;;9.33;3.80;;;13.10;99.80;;;;;;4432970;28;657306;-66
2023/03/14 12:43:26;;;;;;;9.53;3.80;;;13.00;98.80;;;;;;4414480;28;656633;-67
2023/03/14 12:46:21;;;;;;;13.17;4.27;;;12.70;99.10;;;;;;4419593;28;657960;-68
2023/03/14 12:49:09;;;;;;;9.03;4.23;;;12.80;99.90;;;;;;4415748;28;658048;-66
2023/03/14 12:52:01;;;;;;;11.33;4.10;;;12.70;99.90;;;;;;4418135;28;656406;-67
2023/03/14 12:54:49;;;;;;;11.33;4.53;;;12.60;99.90;;;;;;4422057;28;657950;-66
2023/03/14 12:57:37;;;;;;;6.73;3.10;;;12.60;99.90;;;;;;4418010;28;657951;-66
2023/03/14 13:00:25;;;;;;;9.10;3.90;;;12.60;99.90;;;;;;4432660;28;656213;-66
2023/03/14 13:03:22;;;;;;;7.90;3.57;;;12.50;99.90;;;;;;4414513;28;656748;-66
2023/03/14 13:06:10;;;;;;;9.03;3.57;;;12.50;99.90;;;;;;4415798;28;657193;-66
2023/03/14 13:08:58;;;;;;;7.00;3.73;;;12.50;99.90;;;;;;4417447;28;657782;-66
2023/03/14 13:11:46;;;;;;;8.27;3.40;;;12.50;99.90;;;;;;4422199;28;656931;-66
2023/03/14 13:14:33;;;;;;;7.23;3.57;;;12.40;99.90;;;;;;4441541;28;657685;-66
2023/03/14 13:17:26;;;;;;;8.03;3.60;;;12.40;99.90;;;;;;4420602;28;656804;-68
2023/03/14 13:20:15;;;;;;;9.33;4.20;;;12.20;99.90;;;;;;4415087;28;657070;-68
2023/03/14 13:23:03;;;;;;;9.97;4.20;;;12.20;99.90;;;;;;4418361;28;657552;-66
2023/03/14 13:25:52;;;;;;;8.47;3.20;;;12.10;99.90;;;;;;4428555;28;657084;-68
2023/03/14 13:28:39;;;;;;;9.40;4.00;;;12.10;99.90;;;;;;4438096;28;658366;-66
2023/03/14 13:31:26;;;;;;;12.87;3.50;;;12.00;99.90;;;;;;4412494;28;656248;-66
2023/03/14 13:34:13;;;;;;;8.27;3.53;;;11.90;99.90;;;;;;4439604;28;657922;-67
2023/03/14 13:37:01;;;;;;;6.80;3.80;;;11.90;99.90;;;;;;4420945;28;656675;-67
2023/03/14 13:39:50;;;;;;;11.30;3.80;;;11.90;99.90;;;;;;4438111;28;656919;-66
2023/03/14 13:42:39;;;;;;;9.07;3.83;;;11.80;99.90;;;;;;4418497;28;658486;-68
2023/03/14 13:45:26;;;;;;;9.50;3.97;;;11.70;99.90;;;;;;4416870;28;656455;-66
2023/03/14 13:48:14;;;;;;;9.80;4.83;;;11.60;99.90;;;;;;4431464;28;657204;-67
2023/03/14 13:51:04;;;;;;;13.23;4.13;;;11.60;99.90;;;;;;4416544;28;656619;-67
2023/03/14 13:53:52;;;;;;;10.33;3.40;;;11.60;99.90;;;;;;4418858;28;657931;-67
2023/03/14 13:56:39;;;;;;;8.43;3.43;;;11.60;99.90;;;;;;4440211;28;656936;-69
2023/03/14 13:59:28;;;;;;;12.23;4.67;;;11.50;99.90;;;;;;4418780;28;657007;-68
2023/03/14 14:02:16;;;;;;;7.10;3.83;;;11.40;99.90;;;;;;4418482;28;657677;-68
2023/03/14 14:05:03;;;;;;;7.00;3.67;;;11.40;99.90;;;;;;4439094;28;657924;-67
2023/03/14 14:07:50;;;;;;;6.37;3.67;;;11.30;99.90;;;;;;4417588;28;656152;-68
2023/03/14 14:10:38;;;;;;;5.33;2.63;;;11.20;99.90;;;;;;4438962;28;656856;-66
2023/03/14 14:13:25;;;;;;;5.33;3.10;;;11.20;99.90;;;;;;4429554;28;656197;-68
2023/03/14 14:16:14;;;;;;;4.00;2.40;;;11.10;99.90;;;;;;4439062;28;657732;-65
2023/03/14 14:19:01;;;;;;;7.43;3.27;;;11.00;99.90;;;;;;4418703;28;657220;-66
2023/03/14 14:21:48;;;;;;;8.50;3.47;;;10.90;99.90;;;;;;4435131;28;657362;-66
2023/03/14 14:24:36;;;;;;;12.03;3.30;;;10.90;99.90;;;;;;4418164;28;659195;-66
2023/03/14 14:27:28;;;;;;;6.17;2.80;;;10.90;99.90;;;;;;4435896;28;658690;-65